Portada
METAR-TAF:

METAR-TAF

Aeroports :

Malaca, Malàisia

latitud: 02-16N, longitud: 102-15E, altitud: 11 m

Observació

L'informe es va fer fa 57 minuts, a les 01:00 UTC
Vent 3 kt amb direcció variable
Temperatura 26°C
Humitat 89%
Pressió 1011 hPa
Visibilitat 10 km o més
Escasses núvols a una alçada de 1800 ft

METAR: WMKM 260100Z VRB03KT 9999 FEW018 26/24 Q1011

Hora: 09:57 (01:57 UTC)

Pronòstic

L'informe es va fer fa 2 hores i 57 minuts, a les 23:00 UTC
Pronòstic vàlid del 26 a les 00 UTC al 27 a les 00 UTC
Vent 5 kt del Nord-Est
Visibilitat 10 km o més
Escasses núvols a una alçada de 2000 ft

TAF: WMKM 252300Z 2600/2700 05005KT 9999 FEW020

Observacions i pronòstics meteorològics de més de 4000 aeroports (METAR i TAF).

Les estacions disponibles són els punts grocs i vermells al mapa.

Posi el ratolí al punt desitjat per veure el nom de l'estació.

Feu clic per veure les observacions i els pronòstics meteorològics.

Per canviar el mapa: feu clic els botons verds amb una creu de color negre per apropar; al botó verd amb un guió per allunyar la imatge; o en les fletxes verdes per a mapes adjacents.


METAR-TAF: